createdAt,value
2022-11-07T00:00:05.187Z,1003.82
2022-11-07T00:01:05.192Z,1003.88
2022-11-07T00:02:05.232Z,1003.84
2022-11-07T00:03:05.163Z,1003.90
2022-11-07T00:04:05.164Z,1003.91
2022-11-07T00:05:05.136Z,1003.93
2022-11-07T00:06:05.087Z,1003.83
2022-11-07T00:07:05.120Z,1003.84
2022-11-07T00:08:05.126Z,1003.82
2022-11-07T00:09:05.101Z,1003.81
2022-11-07T00:10:05.064Z,1003.82
2022-11-07T00:11:05.051Z,1003.85
2022-11-07T00:12:05.066Z,1003.86
2022-11-07T00:13:05.017Z,1003.84
2022-11-07T00:14:05.029Z,1003.86
2022-11-07T00:15:05.019Z,1003.85
2022-11-07T00:16:04.974Z,1003.85
2022-11-07T00:17:04.982Z,1003.90
2022-11-07T00:18:04.979Z,1003.90
2022-11-07T00:19:04.951Z,1003.81
2022-11-07T00:20:04.962Z,1003.86
2022-11-07T00:21:04.926Z,1003.87
2022-11-07T00:22:04.920Z,1003.87
2022-11-07T00:23:04.924Z,1003.85
2022-11-07T00:24:04.912Z,1003.88
2022-11-07T00:25:04.910Z,1003.84
2022-11-07T00:26:04.869Z,1003.86
2022-11-07T00:27:04.954Z,1003.84
2022-11-07T00:28:04.874Z,1003.88
2022-11-07T00:29:04.843Z,1003.89
2022-11-07T00:30:04.813Z,1003.88
2022-11-07T00:31:04.814Z,1003.93
2022-11-07T00:32:04.817Z,1003.89
2022-11-07T00:33:04.807Z,1003.92
2022-11-07T00:34:04.777Z,1003.98
2022-11-07T00:35:04.787Z,1003.92
2022-11-07T00:36:04.789Z,1003.92
2022-11-07T00:37:04.741Z,1003.93
2022-11-07T00:38:04.727Z,1003.89
2022-11-07T00:39:04.753Z,1003.96
2022-11-07T00:40:04.719Z,1003.92
2022-11-07T00:41:04.718Z,1004.00
2022-11-07T00:42:04.685Z,1003.98
2022-11-07T00:43:04.666Z,1003.94
2022-11-07T00:44:04.664Z,1003.99
2022-11-07T00:45:04.720Z,1004.04
2022-11-07T00:46:04.638Z,1004.09
2022-11-07T00:47:04.675Z,1004.10
2022-11-07T00:48:04.623Z,1004.12
2022-11-07T00:49:04.594Z,1004.11
2022-11-07T00:50:04.597Z,1004.09
2022-11-07T00:51:04.592Z,1004.07
2022-11-07T00:52:04.563Z,1004.05
2022-11-07T00:53:04.547Z,1004.16
2022-11-07T00:54:04.548Z,1004.13
2022-11-07T00:55:04.627Z,1004.11
2022-11-07T00:56:04.544Z,1004.12
2022-11-07T00:57:04.512Z,1004.16
2022-11-07T00:58:05.875Z,1004.14
2022-11-07T00:59:11.001Z,1004.16
2022-11-07T01:00:04.547Z,1004.15
2022-11-07T01:01:04.462Z,1004.19
2022-11-07T01:02:04.592Z,1004.23
2022-11-07T01:03:04.444Z,1004.25
2022-11-07T01:04:04.453Z,1004.20
2022-11-07T01:05:04.431Z,1004.15
2022-11-07T01:06:04.413Z,1004.15
2022-11-07T01:07:04.400Z,1004.18
2022-11-07T01:08:04.393Z,1004.15
2022-11-07T01:09:04.396Z,1004.16
2022-11-07T01:10:04.443Z,1004.18
2022-11-07T01:11:04.362Z,1004.16
2022-11-07T01:12:04.334Z,1004.20
2022-11-07T01:13:04.335Z,1004.18
2022-11-07T01:14:04.330Z,1004.18
2022-11-07T01:15:04.307Z,1004.18
2022-11-07T01:16:04.321Z,1004.23
2022-11-07T01:17:04.273Z,1004.13
2022-11-07T01:18:04.288Z,1004.15
2022-11-07T01:19:10.820Z,1004.15
2022-11-07T01:20:04.317Z,1004.15
2022-11-07T01:21:04.247Z,1004.12
2022-11-07T01:22:04.227Z,1004.15
2022-11-07T01:23:04.208Z,1004.12
2022-11-07T01:24:04.217Z,1004.11
2022-11-07T01:25:04.197Z,1004.13
2022-11-07T01:26:04.196Z,1004.14
2022-11-07T01:27:04.181Z,1004.18
2022-11-07T01:28:04.156Z,1004.11
2022-11-07T01:29:04.157Z,1004.13
2022-11-07T01:30:04.144Z,1004.14
2022-11-07T01:31:04.138Z,1004.16
2022-11-07T01:32:04.117Z,1004.19
2022-11-07T01:33:04.111Z,1004.22
2022-11-07T01:34:04.099Z,1004.19
2022-11-07T01:35:04.093Z,1004.20
2022-11-07T01:36:06.193Z,1004.23
2022-11-07T01:37:04.078Z,1004.28
2022-11-07T01:38:04.040Z,1004.29
2022-11-07T01:39:10.553Z,1004.32
2022-11-07T01:40:04.040Z,1004.35
2022-11-07T01:41:04.073Z,1004.34
2022-11-07T01:42:04.005Z,1004.37
2022-11-07T01:43:03.982Z,1004.37
2022-11-07T01:44:03.989Z,1004.31
2022-11-07T01:45:03.982Z,1004.30
2022-11-07T01:46:03.960Z,1004.35
2022-11-07T01:47:03.952Z,1004.33
2022-11-07T01:48:03.927Z,1004.31
2022-11-07T01:49:03.913Z,1004.34
2022-11-07T01:50:03.921Z,1004.35
2022-11-07T01:51:03.897Z,1004.37
2022-11-07T01:52:03.888Z,1004.33
2022-11-07T01:53:03.902Z,1004.32
2022-11-07T01:54:03.875Z,1004.30
2022-11-07T01:55:03.909Z,1004.34
2022-11-07T01:56:03.851Z,1004.29
2022-11-07T01:57:03.844Z,1004.29
2022-11-07T01:58:03.844Z,1004.32
2022-11-07T01:59:10.336Z,1004.25
2022-11-07T02:00:03.844Z,1004.23
2022-11-07T02:01:03.795Z,1004.21
2022-11-07T02:02:03.948Z,1004.22
2022-11-07T02:03:03.830Z,1004.22
2022-11-07T02:04:03.790Z,1004.21
2022-11-07T02:05:03.783Z,1004.19
2022-11-07T02:06:03.718Z,1004.20
2022-11-07T02:07:03.730Z,1004.16
2022-11-07T02:08:03.704Z,1004.14
2022-11-07T02:09:03.697Z,1004.17
2022-11-07T02:10:03.689Z,1004.15
2022-11-07T02:11:03.687Z,1004.13
2022-11-07T02:12:03.710Z,1004.14
2022-11-07T02:13:03.660Z,1004.08
2022-11-07T02:14:03.635Z,1004.11
2022-11-07T02:15:03.675Z,1004.10
2022-11-07T02:16:03.604Z,1004.11
2022-11-07T02:17:03.635Z,1004.11
2022-11-07T02:18:03.593Z,1004.12
2022-11-07T02:19:10.123Z,1004.12
2022-11-07T02:20:03.558Z,1004.08
2022-11-07T02:21:03.556Z,1004.12
2022-11-07T02:22:03.547Z,1004.11
2022-11-07T02:23:03.585Z,1004.12
2022-11-07T02:24:03.527Z,1004.04
2022-11-07T02:25:03.565Z,1004.10
2022-11-07T02:26:03.527Z,1004.03
2022-11-07T02:27:03.487Z,1004.01
2022-11-07T02:28:03.488Z,1004.04
2022-11-07T02:29:03.467Z,1004.07
2022-11-07T02:30:03.476Z,1004.06
2022-11-07T02:31:03.466Z,1004.08
2022-11-07T02:32:03.436Z,1004.09
2022-11-07T02:33:03.422Z,1004.08
2022-11-07T02:34:03.396Z,1004.09
2022-11-07T02:35:03.412Z,1004.09
2022-11-07T02:36:03.402Z,1004.07
2022-11-07T02:37:03.372Z,1004.04
2022-11-07T02:38:03.361Z,1004.15
2022-11-07T02:39:03.349Z,1004.08
2022-11-07T02:40:03.347Z,1004.09
2022-11-07T02:41:03.339Z,1004.07
2022-11-07T02:42:03.306Z,1004.11
2022-11-07T02:43:03.374Z,1004.09
2022-11-07T02:44:03.280Z,1004.10
2022-11-07T02:45:03.306Z,1004.13
2022-11-07T02:46:03.283Z,1004.09
2022-11-07T02:47:03.301Z,1004.10
2022-11-07T02:48:03.287Z,1004.07
2022-11-07T02:49:03.226Z,1004.02
2022-11-07T02:50:03.232Z,1004.05
2022-11-07T02:51:03.205Z,1004.08
2022-11-07T02:52:03.254Z,1004.04
2022-11-07T02:53:03.197Z,1004.06
2022-11-07T02:54:03.213Z,1004.04
2022-11-07T02:55:03.355Z,1004.11
2022-11-07T02:56:03.162Z,1004.11
2022-11-07T02:57:03.142Z,1004.15
2022-11-07T02:58:03.154Z,1004.13
2022-11-07T02:59:03.151Z,1004.11
2022-11-07T03:00:03.125Z,1004.07
2022-11-07T03:01:03.104Z,1004.02
2022-11-07T03:02:03.238Z,1004.05
2022-11-07T03:03:03.073Z,1004.03
2022-11-07T03:04:03.088Z,1004.06
2022-11-07T03:05:03.073Z,1003.99
2022-11-07T03:06:03.055Z,1003.99
2022-11-07T03:07:03.062Z,1003.99
2022-11-07T03:08:03.088Z,1004.01
2022-11-07T03:09:10.089Z,1003.95
2022-11-07T03:10:03.012Z,1004.00
2022-11-07T03:11:03.009Z,1004.01
2022-11-07T03:12:02.985Z,1003.97
2022-11-07T03:13:02.992Z,1003.95
2022-11-07T03:14:03.014Z,1004.01
2022-11-07T03:15:03.057Z,1003.99
2022-11-07T03:16:02.947Z,1004.03
2022-11-07T03:17:02.924Z,1004.07
2022-11-07T03:18:02.903Z,1004.08
2022-11-07T03:19:02.917Z,1004.01
2022-11-07T03:20:02.918Z,1004.05
2022-11-07T03:21:02.893Z,1004.07
2022-11-07T03:22:02.846Z,1004.04
2022-11-07T03:23:02.868Z,1004.00
2022-11-07T03:24:03.197Z,1004.03
2022-11-07T03:25:02.853Z,1004.09
2022-11-07T03:26:02.825Z,1004.03
2022-11-07T03:27:02.836Z,1004.11
2022-11-07T03:28:02.810Z,1004.10
2022-11-07T03:29:02.796Z,1004.13
2022-11-07T03:30:02.780Z,1004.13
2022-11-07T03:31:02.773Z,1004.15
2022-11-07T03:32:02.754Z,1004.14
2022-11-07T03:33:02.753Z,1004.16
2022-11-07T03:34:03.613Z,1004.14
2022-11-07T03:35:02.741Z,1004.17
2022-11-07T03:36:02.701Z,1004.15
2022-11-07T03:37:02.734Z,1004.20
2022-11-07T03:38:02.681Z,1004.16
2022-11-07T03:39:02.698Z,1004.21
2022-11-07T03:40:02.676Z,1004.22
2022-11-07T03:41:02.665Z,1004.20
2022-11-07T03:42:02.753Z,1004.20
2022-11-07T03:43:02.633Z,1004.21
2022-11-07T03:44:02.608Z,1004.20
2022-11-07T03:45:02.653Z,1004.20
2022-11-07T03:46:02.606Z,1004.25
2022-11-07T03:47:02.599Z,1004.22
2022-11-07T03:48:02.578Z,1004.23
2022-11-07T03:49:02.587Z,1004.24
2022-11-07T03:50:02.565Z,1004.32
2022-11-07T03:51:02.551Z,1004.29
2022-11-07T03:52:02.605Z,1004.25
2022-11-07T03:53:02.526Z,1004.24
2022-11-07T03:54:02.523Z,1004.27
2022-11-07T03:55:02.509Z,1004.17
2022-11-07T03:56:02.493Z,1004.24
2022-11-07T03:57:02.486Z,1004.24
2022-11-07T03:58:02.464Z,1004.24
2022-11-07T03:59:02.475Z,1004.27
2022-11-07T04:00:02.467Z,1004.22
2022-11-07T04:01:02.470Z,1004.26
2022-11-07T04:02:02.557Z,1004.26
2022-11-07T04:03:02.505Z,1004.25
2022-11-07T04:04:02.414Z,1004.28
2022-11-07T04:05:02.380Z,1004.28
2022-11-07T04:06:02.378Z,1004.29
2022-11-07T04:07:02.363Z,1004.24
2022-11-07T04:08:02.361Z,1004.24
2022-11-07T04:09:02.378Z,1004.28
2022-11-07T04:10:02.329Z,1004.26
2022-11-07T04:11:02.315Z,1004.28
2022-11-07T04:12:02.358Z,1004.21
2022-11-07T04:13:02.296Z,1004.30
2022-11-07T04:14:02.278Z,1004.26
2022-11-07T04:15:02.269Z,1004.27
2022-11-07T04:16:02.318Z,1004.32
2022-11-07T04:17:02.312Z,1004.38
2022-11-07T04:18:02.233Z,1004.41
2022-11-07T04:19:02.262Z,1004.33
2022-11-07T04:20:02.215Z,1004.41
2022-11-07T04:21:02.212Z,1004.38
2022-11-07T04:22:02.174Z,1004.40
2022-11-07T04:23:02.269Z,1004.44
2022-11-07T04:24:02.184Z,1004.48
2022-11-07T04:25:02.145Z,1004.49
2022-11-07T04:26:02.151Z,1004.51
2022-11-07T04:27:02.155Z,1004.52
2022-11-07T04:28:02.129Z,1004.50
2022-11-07T04:29:02.132Z,1004.51
2022-11-07T04:30:02.106Z,1004.52
2022-11-07T04:31:02.083Z,1004.50
2022-11-07T04:32:02.058Z,1004.53
2022-11-07T04:33:02.048Z,1004.51
2022-11-07T04:34:02.055Z,1004.49
2022-11-07T04:35:02.050Z,1004.46
2022-11-07T04:36:02.044Z,1004.41
2022-11-07T04:37:02.026Z,1004.46
2022-11-07T04:38:02.008Z,1004.46
2022-11-07T04:39:01.977Z,1004.50
2022-11-07T04:40:02.001Z,1004.46
2022-11-07T04:41:01.984Z,1004.47
2022-11-07T04:42:01.952Z,1004.42
2022-11-07T04:43:01.953Z,1004.40
2022-11-07T04:44:02.065Z,1004.46
2022-11-07T04:45:01.957Z,1004.48
2022-11-07T04:46:01.954Z,1004.46
2022-11-07T04:47:01.982Z,1004.44
2022-11-07T04:48:01.899Z,1004.42
2022-11-07T04:49:09.430Z,1004.45
2022-11-07T04:50:01.893Z,1004.42
2022-11-07T04:51:01.849Z,1004.43
2022-11-07T04:52:01.833Z,1004.44
2022-11-07T04:53:01.847Z,1004.46
2022-11-07T04:54:01.843Z,1004.42
2022-11-07T04:55:01.819Z,1004.43
2022-11-07T04:56:01.794Z,1004.43
2022-11-07T04:57:01.788Z,1004.43
2022-11-07T04:58:01.783Z,1004.43
2022-11-07T04:59:01.792Z,1004.42
2022-11-07T05:00:01.761Z,1004.42
2022-11-07T05:01:01.753Z,1004.43
2022-11-07T05:02:01.899Z,1004.41
2022-11-07T05:03:01.832Z,1004.48
2022-11-07T05:04:01.720Z,1004.54
2022-11-07T05:05:01.712Z,1004.49
2022-11-07T05:06:01.688Z,1004.52
2022-11-07T05:07:01.719Z,1004.52
2022-11-07T05:08:55.394Z,1004.55
2022-11-07T05:09:55.769Z,1004.58
2022-11-07T05:10:55.772Z,1004.62
2022-11-07T05:11:56.192Z,1004.54
2022-11-07T05:12:56.748Z,1004.57
2022-11-07T05:13:55.697Z,1004.53
2022-11-07T05:14:55.716Z,1004.48
2022-11-07T05:15:55.689Z,1004.51
2022-11-07T05:16:55.730Z,1004.53
2022-11-07T05:17:55.731Z,1004.50
2022-11-07T05:19:02.546Z,1004.50
2022-11-07T05:19:55.668Z,1004.57
2022-11-07T05:20:55.635Z,1004.56
2022-11-07T05:21:55.629Z,1004.50
2022-11-07T05:22:56.538Z,1004.62
2022-11-07T05:23:55.585Z,1004.58
2022-11-07T05:24:55.599Z,1004.57
2022-11-07T05:25:55.590Z,1004.62
2022-11-07T05:26:55.605Z,1004.60
2022-11-07T05:27:55.557Z,1004.63
2022-11-07T05:28:55.536Z,1004.60
2022-11-07T05:29:58.448Z,1004.53
2022-11-07T05:30:55.543Z,1004.57
2022-11-07T05:31:55.512Z,1004.64
2022-11-07T05:32:55.501Z,1004.62
2022-11-07T05:33:55.498Z,1004.60
2022-11-07T05:34:55.486Z,1004.61
2022-11-07T05:35:55.471Z,1004.61
2022-11-07T05:36:55.478Z,1004.59
2022-11-07T05:37:55.468Z,1004.62
2022-11-07T05:38:55.436Z,1004.64
2022-11-07T05:39:55.433Z,1004.66
2022-11-07T05:40:55.411Z,1004.68
2022-11-07T05:41:56.315Z,1004.68
2022-11-07T05:42:55.414Z,1004.68
2022-11-07T05:43:55.381Z,1004.65
2022-11-07T05:44:55.428Z,1004.68
2022-11-07T05:45:55.340Z,1004.63
2022-11-07T05:46:55.377Z,1004.65
2022-11-07T05:47:55.356Z,1004.63
2022-11-07T05:49:00.553Z,1004.66
2022-11-07T05:49:55.330Z,1004.69
2022-11-07T05:50:55.345Z,1004.64
2022-11-07T05:51:55.281Z,1004.67
2022-11-07T05:52:55.328Z,1004.64
2022-11-07T05:53:55.277Z,1004.68
2022-11-07T05:54:55.249Z,1004.64
2022-11-07T05:55:55.268Z,1004.72
2022-11-07T05:56:55.238Z,1004.72
2022-11-07T05:57:55.213Z,1004.76
2022-11-07T05:58:55.216Z,1004.78
2022-11-07T05:59:55.196Z,1004.78
2022-11-07T06:00:55.183Z,1004.78
2022-11-07T06:01:55.365Z,1004.79
2022-11-07T06:02:55.363Z,1004.79
2022-11-07T06:03:55.168Z,1004.81
2022-11-07T06:04:55.152Z,1004.81
2022-11-07T06:05:55.118Z,1004.79
2022-11-07T06:06:55.123Z,1004.76
2022-11-07T06:07:55.100Z,1004.77
2022-11-07T06:09:02.889Z,1004.75
2022-11-07T06:09:55.082Z,1004.74
2022-11-07T06:10:55.132Z,1004.76
2022-11-07T06:11:55.056Z,1004.78
2022-11-07T06:12:56.188Z,1004.78
2022-11-07T06:13:55.043Z,1004.81
2022-11-07T06:14:55.034Z,1004.83
2022-11-07T06:15:55.033Z,1004.80
2022-11-07T06:16:55.028Z,1004.80
2022-11-07T06:17:54.990Z,1004.82
2022-11-07T06:18:54.993Z,1004.82
2022-11-07T06:19:55.036Z,1004.88
2022-11-07T06:20:54.983Z,1004.86
2022-11-07T06:21:54.952Z,1004.88
2022-11-07T06:22:54.940Z,1004.82
2022-11-07T06:23:54.923Z,1004.79
2022-11-07T06:24:54.922Z,1004.82
2022-11-07T06:25:54.906Z,1004.82
2022-11-07T06:26:54.902Z,1004.83
2022-11-07T06:27:54.904Z,1004.81
2022-11-07T06:28:54.883Z,1004.87
2022-11-07T06:29:54.855Z,1004.86
2022-11-07T06:30:54.865Z,1004.85
2022-11-07T06:31:54.844Z,1004.85
2022-11-07T06:32:54.833Z,1004.87
2022-11-07T06:33:54.821Z,1004.89
2022-11-07T06:34:55.046Z,1004.90
2022-11-07T06:35:54.809Z,1004.88
2022-11-07T06:37:02.656Z,1004.88
2022-11-07T06:37:54.815Z,1004.93
2022-11-07T06:38:54.781Z,1004.97
2022-11-07T06:39:55.343Z,1004.99
2022-11-07T06:40:54.742Z,1004.97
2022-11-07T06:41:54.735Z,1005.03
2022-11-07T06:42:54.713Z,1005.01
2022-11-07T06:43:54.700Z,1004.94
2022-11-07T06:44:54.698Z,1004.98
2022-11-07T06:45:54.704Z,1004.94
2022-11-07T06:46:54.695Z,1004.94
2022-11-07T06:47:55.079Z,1004.94
2022-11-07T06:48:54.697Z,1004.91
2022-11-07T06:49:54.654Z,1004.91
2022-11-07T06:50:54.700Z,1004.90
2022-11-07T06:51:54.647Z,1004.92
2022-11-07T06:52:54.656Z,1004.98
2022-11-07T06:53:54.602Z,1004.95
2022-11-07T06:54:54.693Z,1005.02
2022-11-07T06:55:54.584Z,1004.99
2022-11-07T06:56:55.351Z,1005.00
2022-11-07T06:57:54.556Z,1005.00
2022-11-07T06:58:54.558Z,1005.00
2022-11-07T06:59:54.565Z,1004.98
2022-11-07T07:00:54.780Z,1005.03
2022-11-07T07:01:54.572Z,1004.99
2022-11-07T07:02:59.028Z,1005.03
2022-11-07T07:03:54.490Z,1005.03
2022-11-07T07:04:55.319Z,1005.02
2022-11-07T07:05:54.457Z,1005.01
2022-11-07T07:07:01.344Z,1005.04
2022-11-07T07:07:54.454Z,1004.99
2022-11-07T07:08:54.429Z,1005.05
2022-11-07T07:09:54.425Z,1004.99
2022-11-07T07:10:54.419Z,1005.07
2022-11-07T07:11:54.636Z,1005.05
2022-11-07T07:12:54.410Z,1005.05
2022-11-07T07:13:58.205Z,1005.01
2022-11-07T07:14:55.348Z,1005.06
2022-11-07T07:15:54.351Z,1005.02
2022-11-07T07:16:54.356Z,1005.09
2022-11-07T07:17:54.331Z,1005.11
2022-11-07T07:18:54.319Z,1005.14
2022-11-07T07:19:55.241Z,1005.13
2022-11-07T07:20:54.341Z,1005.11
2022-11-07T07:21:54.333Z,1005.15
2022-11-07T07:23:00.156Z,1005.11
2022-11-07T07:23:54.266Z,1005.13
2022-11-07T07:24:54.259Z,1005.15
2022-11-07T07:25:54.230Z,1005.17
2022-11-07T07:26:54.228Z,1005.19
2022-11-07T07:27:54.227Z,1005.13
2022-11-07T07:28:54.212Z,1005.17
2022-11-07T07:29:54.218Z,1005.22
2022-11-07T07:30:54.416Z,1005.23
2022-11-07T07:31:54.844Z,1005.19
2022-11-07T07:32:56.382Z,1005.18
2022-11-07T07:33:54.150Z,1005.21
2022-11-07T07:34:54.152Z,1005.25
2022-11-07T07:35:54.125Z,1005.26
2022-11-07T07:36:54.115Z,1005.21
2022-11-07T07:37:54.112Z,1005.23
2022-11-07T07:38:54.328Z,1005.26
2022-11-07T07:39:54.845Z,1005.31
2022-11-07T07:40:54.593Z,1005.29
2022-11-07T07:41:54.079Z,1005.30
2022-11-07T07:42:54.083Z,1005.35
2022-11-07T07:43:54.038Z,1005.35
2022-11-07T07:44:57.105Z,1005.37
2022-11-07T07:45:59.985Z,1005.30
2022-11-07T07:46:54.932Z,1005.37
2022-11-07T07:47:54.022Z,1005.29
2022-11-07T07:48:54.010Z,1005.31
2022-11-07T07:49:53.973Z,1005.33
2022-11-07T07:50:53.981Z,1005.26
2022-11-07T07:51:55.294Z,1005.25
2022-11-07T07:52:53.998Z,1005.30
2022-11-07T07:53:56.174Z,1005.28
2022-11-07T07:55:15.684Z,1005.28
2022-11-07T07:55:55.280Z,1005.29
2022-11-07T07:56:53.910Z,1005.27
2022-11-07T07:57:53.883Z,1005.30
2022-11-07T07:58:55.202Z,1005.29
2022-11-07T07:59:54.365Z,1005.32
2022-11-07T08:00:54.102Z,1005.31
2022-11-07T08:01:57.205Z,1005.21
2022-11-07T08:02:54.306Z,1005.20
2022-11-07T08:04:02.877Z,1005.26
2022-11-07T08:04:54.050Z,1005.30
2022-11-07T08:05:54.040Z,1005.32
2022-11-07T08:06:55.130Z,1005.33
2022-11-07T08:07:53.759Z,1005.30
2022-11-07T08:08:53.773Z,1005.35
2022-11-07T08:09:54.590Z,1005.36
2022-11-07T08:10:53.741Z,1005.35
2022-11-07T08:11:53.745Z,1005.39
2022-11-07T08:12:54.391Z,1005.40
2022-11-07T08:13:58.385Z,1005.38
2022-11-07T08:14:54.375Z,1005.41
2022-11-07T08:15:53.682Z,1005.37
2022-11-07T08:16:53.794Z,1005.39
2022-11-07T08:17:55.064Z,1005.39
2022-11-07T08:18:53.664Z,1005.40
2022-11-07T08:20:09.665Z,1005.35
2022-11-07T08:20:54.384Z,1005.37
2022-11-07T08:21:53.621Z,1005.41
2022-11-07T08:22:53.610Z,1005.36
2022-11-07T08:23:53.658Z,1005.45
2022-11-07T08:24:53.620Z,1005.43
2022-11-07T08:25:53.563Z,1005.39
2022-11-07T08:26:53.559Z,1005.39
2022-11-07T08:27:53.596Z,1005.35
2022-11-07T08:28:53.529Z,1005.36
2022-11-07T08:29:53.535Z,1005.40
2022-11-07T08:30:53.532Z,1005.36
2022-11-07T08:31:53.505Z,1005.41
2022-11-07T08:32:53.493Z,1005.43
2022-11-07T08:33:53.518Z,1005.40
2022-11-07T08:34:54.396Z,1005.40
2022-11-07T08:35:53.459Z,1005.39
2022-11-07T08:36:53.452Z,1005.41
2022-11-07T08:37:54.020Z,1005.35
2022-11-07T08:38:53.407Z,1005.32
2022-11-07T08:39:53.408Z,1005.39
2022-11-07T08:40:53.452Z,1005.38
2022-11-07T08:41:54.434Z,1005.41
2022-11-07T08:42:53.371Z,1005.35
2022-11-07T08:43:53.389Z,1005.38
2022-11-07T08:44:59.337Z,1005.41
2022-11-07T08:45:54.884Z,1005.45
2022-11-07T08:46:53.339Z,1005.43
2022-11-07T08:47:53.350Z,1005.43
2022-11-07T08:48:53.301Z,1005.37
2022-11-07T08:49:53.298Z,1005.36
2022-11-07T08:50:53.308Z,1005.40
2022-11-07T08:51:53.298Z,1005.45
2022-11-07T08:52:55.912Z,1005.42
2022-11-07T08:53:53.266Z,1005.43
2022-11-07T08:54:53.310Z,1005.45
2022-11-07T08:55:53.245Z,1005.44
2022-11-07T08:56:53.893Z,1005.44
2022-11-07T08:57:53.220Z,1005.42
2022-11-07T08:58:53.190Z,1005.42
2022-11-07T08:59:54.025Z,1005.44
2022-11-07T09:00:53.257Z,1005.47
2022-11-07T09:02:39.014Z,1005.50
2022-11-07T09:03:38.737Z,1005.49
2022-11-07T09:03:57.884Z,1005.46
2022-11-07T09:04:53.207Z,1005.48
2022-11-07T09:05:53.171Z,1005.49
2022-11-07T09:06:53.102Z,1005.52
2022-11-07T09:07:53.124Z,1005.51
2022-11-07T09:08:53.293Z,1005.50
2022-11-07T09:09:53.098Z,1005.52
2022-11-07T09:10:53.071Z,1005.48
2022-11-07T09:11:53.043Z,1005.54
2022-11-07T09:12:53.056Z,1005.52
2022-11-07T09:13:53.032Z,1005.57
2022-11-07T09:14:53.547Z,1005.52
2022-11-07T09:15:53.237Z,1005.51
2022-11-07T09:16:53.026Z,1005.47
2022-11-07T09:17:52.979Z,1005.53
2022-11-07T09:18:53.031Z,1005.44
2022-11-07T09:19:52.953Z,1005.50
2022-11-07T09:20:52.960Z,1005.52
2022-11-07T09:21:52.925Z,1005.51
2022-11-07T09:22:52.924Z,1005.56
2022-11-07T09:23:52.940Z,1005.59
2022-11-07T09:24:52.897Z,1005.57
2022-11-07T09:25:52.942Z,1005.52
2022-11-07T09:26:52.876Z,1005.56
2022-11-07T09:27:52.875Z,1005.51
2022-11-07T09:28:57.267Z,1005.58
2022-11-07T09:29:53.095Z,1005.47
2022-11-07T09:30:53.614Z,1005.56
2022-11-07T09:31:53.034Z,1005.60
2022-11-07T09:32:53.047Z,1005.51
2022-11-07T09:33:55.630Z,1005.49
2022-11-07T09:34:58.139Z,1005.52
2022-11-07T09:35:55.985Z,1005.60
2022-11-07T09:36:53.391Z,1005.53
2022-11-07T09:37:52.964Z,1005.52
2022-11-07T09:38:53.401Z,1005.54
2022-11-07T09:39:53.160Z,1005.59
2022-11-07T09:40:52.973Z,1005.56
2022-11-07T09:41:52.732Z,1005.53
2022-11-07T09:42:59.781Z,1005.61
2022-11-07T09:43:53.610Z,1005.59
2022-11-07T09:44:52.692Z,1005.58
2022-11-07T09:45:53.310Z,1005.57
2022-11-07T09:46:52.683Z,1005.65
2022-11-07T09:47:57.692Z,1005.67
2022-11-07T09:48:53.420Z,1005.63
2022-11-07T09:49:53.619Z,1005.60
2022-11-07T09:50:52.831Z,1005.58
2022-11-07T09:51:53.175Z,1005.60
2022-11-07T09:52:52.590Z,1005.59
2022-11-07T09:53:58.616Z,1005.59
2022-11-07T09:54:53.407Z,1005.59
2022-11-07T09:55:52.537Z,1005.63
2022-11-07T09:57:41.992Z,1005.64
2022-11-07T09:59:39.325Z,1005.66
2022-11-07T10:00:41.129Z,1005.72
2022-11-07T10:01:40.512Z,1005.66
2022-11-07T10:02:41.267Z,1005.69
2022-11-07T10:03:43.162Z,1005.70
2022-11-07T10:04:39.984Z,1005.80
2022-11-07T10:05:39.779Z,1005.73
2022-11-07T10:06:39.764Z,1005.79
2022-11-07T10:07:42.085Z,1005.80
2022-11-07T10:08:39.743Z,1005.76
2022-11-07T10:09:39.978Z,1005.77
2022-11-07T10:10:40.336Z,1005.82
2022-11-07T10:11:39.702Z,1005.82
2022-11-07T10:12:44.970Z,1005.82
2022-11-07T10:13:41.033Z,1005.85
2022-11-07T10:14:39.877Z,1005.78
2022-11-07T10:15:39.872Z,1005.81
2022-11-07T10:16:40.057Z,1005.85
2022-11-07T10:17:42.105Z,1005.93
2022-11-07T10:18:40.234Z,1005.89
2022-11-07T10:19:40.905Z,1005.83
2022-11-07T10:20:42.232Z,1005.83
2022-11-07T10:21:39.756Z,1005.88
2022-11-07T10:22:39.626Z,1005.91
2022-11-07T10:23:39.584Z,1005.90
2022-11-07T10:24:39.567Z,1005.83
2022-11-07T10:25:39.558Z,1005.90
2022-11-07T10:26:43.563Z,1005.89
2022-11-07T10:27:39.785Z,1005.89
2022-11-07T10:28:39.776Z,1005.87
2022-11-07T10:29:44.403Z,1005.88
2022-11-07T10:30:39.532Z,1005.95
2022-11-07T10:31:39.535Z,1005.90
2022-11-07T10:32:42.346Z,1005.89
2022-11-07T10:33:39.460Z,1005.91
2022-11-07T10:34:39.560Z,1005.88
2022-11-07T10:35:39.436Z,1005.91
2022-11-07T10:36:39.426Z,1005.90
2022-11-07T10:37:39.431Z,1005.85
2022-11-07T10:38:39.442Z,1005.81
2022-11-07T10:39:39.396Z,1005.90
2022-11-07T10:40:39.390Z,1005.83
2022-11-07T10:41:39.361Z,1005.83
2022-11-07T10:42:40.263Z,1005.84
2022-11-07T10:43:39.361Z,1005.90
2022-11-07T10:44:39.369Z,1005.85
2022-11-07T10:45:39.323Z,1005.83
2022-11-07T10:46:39.314Z,1005.86
2022-11-07T10:47:39.325Z,1005.97
2022-11-07T10:48:39.274Z,1005.91
2022-11-07T10:49:39.273Z,1005.83
2022-11-07T10:50:39.267Z,1005.78
2022-11-07T10:51:39.271Z,1005.87
2022-11-07T10:52:39.469Z,1005.78
2022-11-07T10:53:39.227Z,1005.80
2022-11-07T10:54:39.233Z,1005.81
2022-11-07T10:55:39.193Z,1005.88
2022-11-07T10:56:41.664Z,1005.73
2022-11-07T10:57:39.189Z,1005.62
2022-11-07T10:58:39.382Z,1005.67
2022-11-07T10:59:39.216Z,1005.61
2022-11-07T11:00:42.658Z,1005.52
2022-11-07T11:01:39.329Z,1005.58
2022-11-07T11:02:39.114Z,1005.54
2022-11-07T11:03:44.460Z,1005.50
2022-11-07T11:04:39.121Z,1005.46
2022-11-07T11:05:39.083Z,1005.50
2022-11-07T11:06:39.072Z,1005.44
2022-11-07T11:07:39.078Z,1005.49
2022-11-07T11:08:40.496Z,1005.44
2022-11-07T11:09:39.062Z,1005.43
2022-11-07T11:10:39.041Z,1005.48
2022-11-07T11:11:39.858Z,1005.43
2022-11-07T11:12:39.009Z,1005.44
2022-11-07T11:13:39.031Z,1005.44
2022-11-07T11:14:39.051Z,1005.40
2022-11-07T11:15:38.967Z,1005.43
2022-11-07T11:16:39.096Z,1005.54
2022-11-07T11:17:38.960Z,1005.44
2022-11-07T11:18:39.145Z,1005.42
2022-11-07T11:19:38.967Z,1005.40
2022-11-07T11:20:42.410Z,1005.43
2022-11-07T11:21:40.070Z,1005.34
2022-11-07T11:22:39.868Z,1005.35
2022-11-07T11:23:42.768Z,1005.34
2022-11-07T11:24:38.888Z,1005.29
2022-11-07T11:25:38.855Z,1005.27
2022-11-07T11:26:38.868Z,1005.35
2022-11-07T11:27:38.850Z,1005.30
2022-11-07T11:28:38.835Z,1005.29
2022-11-07T11:29:40.824Z,1005.36
2022-11-07T11:30:39.423Z,1005.31
2022-11-07T11:31:38.829Z,1005.27
2022-11-07T11:32:39.347Z,1005.32
2022-11-07T11:33:40.221Z,1005.40
2022-11-07T11:34:44.842Z,1005.24
2022-11-07T11:35:42.242Z,1005.28
2022-11-07T11:36:40.231Z,1005.25
2022-11-07T11:37:40.080Z,1005.28
2022-11-07T11:38:39.332Z,1005.23
2022-11-07T11:39:39.265Z,1005.29
2022-11-07T11:41:10.788Z,1005.30
2022-11-07T11:41:40.424Z,1005.20
2022-11-07T11:42:38.898Z,1005.20
2022-11-07T11:43:38.663Z,1005.17
2022-11-07T11:44:38.653Z,1005.17
2022-11-07T11:45:40.228Z,1005.17
2022-11-07T11:46:54.851Z,1005.27
2022-11-07T11:47:41.418Z,1005.25
2022-11-07T11:48:40.735Z,1005.31
2022-11-07T11:49:43.117Z,1005.31
2022-11-07T11:50:38.635Z,1005.32
2022-11-07T11:51:39.693Z,1005.30
2022-11-07T11:52:40.543Z,1005.27
2022-11-07T11:53:39.359Z,1005.37
2022-11-07T11:54:40.312Z,1005.35
2022-11-07T11:55:38.548Z,1005.36
2022-11-07T11:56:38.518Z,1005.21
2022-11-07T11:57:38.494Z,1005.35
2022-11-07T11:58:42.010Z,1005.24
2022-11-07T11:59:39.813Z,1005.28
2022-11-07T12:00:41.806Z,1005.24
2022-11-07T12:01:38.507Z,1005.28
2022-11-07T12:02:38.495Z,1005.44
2022-11-07T12:03:40.196Z,1005.28
2022-11-07T12:04:38.435Z,1005.40
2022-11-07T12:05:38.458Z,1005.32
2022-11-07T12:06:38.443Z,1005.33
2022-11-07T12:07:38.418Z,1005.27